Canefield Airport

Cloudy with adjacent showers
31oC (88oF)

Cloudy with adjacent showers


Winds: North westerly @ 03kts / 06km/h

Humidity: 71%

Barometric Pressure: 1010 mb

Accumulated Rainfall for August: 35.4 mm

Updated: 16:00 local time (20:00 UTC)

Douglas-Charles Airport

Cloudy with adjacent showers
26oC (79oF)

Cloudy with adjacent showers


Winds: North easterly @ 02kts / 04km/h

Humidity: 90%

Barometric Pressure: 1012 mb

Accumulated Rainfall for August: 59.2 mm

Updated: 18:00 local time (22:00 UTC)

Satellite Imagery

Satellite Imagery
Click image for larger view. (Source: National Hurricane Center).

Aviation Routine Report (METAR)

Douglas-Charles: METAR TDPD 132200Z 04002KT 9999 BKN016 SCT034 26/24 Q1012=
Canefield: METAR TDCF 132000Z 31003KT 9999 BKN019 31/25 Q1010=